sensor_id;sensor_type;location;lat;lon;timestamp;pressure;altitude;pressure_sealevel;temperature;humidity
66880;BME280;53789;51.392;10.234;2022-08-01T00:00:08;98170.41;;;17.86;83.99
66880;BME280;53789;51.392;10.234;2022-08-01T00:00:28;98169.22;;;17.87;83.84
66880;BME280;53789;51.392;10.234;2022-08-01T00:00:49;98167.25;;;17.88;83.98
66880;BME280;53789;51.392;10.234;2022-08-01T00:01:12;98174.41;;;17.89;84.25
66880;BME280;53789;51.392;10.234;2022-08-01T00:01:32;98163.28;;;17.89;83.80
66880;BME280;53789;51.392;10.234;2022-08-01T00:01:53;98164.91;;;17.90;84.64
66880;BME280;53789;51.392;10.234;2022-08-01T00:02:13;98168.84;;;17.89;83.89
66880;BME280;53789;51.392;10.234;2022-08-01T00:02:34;98166.06;;;17.89;84.00
66880;BME280;53789;51.392;10.234;2022-08-01T00:02:54;98164.13;;;17.89;84.71
66880;BME280;53789;51.392;10.234;2022-08-01T00:03:14;98174.41;;;17.89;84.69
66880;BME280;53789;51.392;10.234;2022-08-01T00:03:34;98161.34;;;17.89;83.97
66880;BME280;53789;51.392;10.234;2022-08-01T00:03:55;98173.25;;;17.90;84.07
66880;BME280;53789;51.392;10.234;2022-08-01T00:04:15;98160.97;;;17.91;84.62
66880;BME280;53789;51.392;10.234;2022-08-01T00:04:35;98166.53;;;17.91;84.67
66880;BME280;53789;51.392;10.234;2022-08-01T00:04:56;98163.28;;;17.89;84.29
66880;BME280;53789;51.392;10.234;2022-08-01T00:05:17;98159.00;;;17.91;84.67
66880;BME280;53789;51.392;10.234;2022-08-01T00:05:37;98165.72;;;17.90;84.73
66880;BME280;53789;51.392;10.234;2022-08-01T00:05:58;98161.78;;;17.91;84.36
66880;BME280;53789;51.392;10.234;2022-08-01T00:06:18;98155.41;;;17.91;84.95
66880;BME280;53789;51.392;10.234;2022-08-01T00:06:38;98157.00;;;17.92;83.95
66880;BME280;53789;51.392;10.234;2022-08-01T00:06:58;98161.88;;;17.95;84.43
66880;BME280;53789;51.392;10.234;2022-08-01T00:07:19;98161.06;;;17.94;84.45
66880;BME280;53789;51.392;10.234;2022-08-01T00:07:39;98161.06;;;17.94;84.22
66880;BME280;53789;51.392;10.234;2022-08-01T00:08:00;98163.03;;;17.94;83.96
66880;BME280;53789;51.392;10.234;2022-08-01T00:08:20;98156.31;;;17.95;83.98
66880;BME280;53789;51.392;10.234;2022-08-01T00:08:40;98162.25;;;17.93;84.16
66880;BME280;53789;51.392;10.234;2022-08-01T00:09:00;98164.66;;;17.95;84.01
66880;BME280;53789;51.392;10.234;2022-08-01T00:09:21;98165.47;;;17.95;84.67
66880;BME280;53789;51.392;10.234;2022-08-01T00:09:41;98156.31;;;17.95;84.20
66880;BME280;53789;51.392;10.234;2022-08-01T00:10:07;98159.91;;;17.95;83.90
66880;BME280;53789;51.392;10.234;2022-08-01T00:10:28;98167.44;;;17.95;84.51
66880;BME280;53789;51.392;10.234;2022-08-01T00:10:49;98159.91;;;17.95;84.15
66880;BME280;53789;51.392;10.234;2022-08-01T00:11:09;98161.06;;;17.94;84.46
66880;BME280;53789;51.392;10.234;2022-08-01T00:11:29;98154.34;;;17.95;84.58
66880;BME280;53789;51.392;10.234;2022-08-01T00:11:50;98159.09;;;17.95;84.23
66880;BME280;53789;51.392;10.234;2022-08-01T00:12:10;98154.34;;;17.95;84.54
66880;BME280;53789;51.392;10.234;2022-08-01T00:12:31;98163.03;;;17.94;84.65
66880;BME280;53789;51.392;10.234;2022-08-01T00:12:51;98159.09;;;17.95;85.04
66880;BME280;53789;51.392;10.234;2022-08-01T00:13:11;98162.69;;;17.95;84.34
66880;BME280;53789;51.392;10.234;2022-08-01T00:13:32;98163.84;;;17.94;84.93
66880;BME280;53789;51.392;10.234;2022-08-01T00:13:52;98162.69;;;17.95;84.30
66880;BME280;53789;51.392;10.234;2022-08-01T00:14:12;98157.91;;;17.96;83.96
66880;BME280;53789;51.392;10.234;2022-08-01T00:14:33;98162.31;;;17.97;84.50
66880;BME280;53789;51.392;10.234;2022-08-01T00:14:53;98161.16;;;17.98;84.90
66880;BME280;53789;51.392;10.234;2022-08-01T00:15:15;98152.00;;;17.98;84.41
66880;BME280;53789;51.392;10.234;2022-08-01T00:15:36;98159.19;;;17.99;84.68
66880;BME280;53789;51.392;10.234;2022-08-01T00:15:56;98158.38;;;17.98;84.49
66880;BME280;53789;51.392;10.234;2022-08-01T00:16:16;98155.59;;;17.98;84.77
66880;BME280;53789;51.392;10.234;2022-08-01T00:16:37;98159.97;;;17.99;84.61
66880;BME280;53789;51.392;10.234;2022-08-01T00:16:57;98155.25;;;18.00;84.03
66880;BME280;53789;51.392;10.234;2022-08-01T00:17:17;98156.41;;;17.99;84.29
66880;BME280;53789;51.392;10.234;2022-08-01T00:17:38;98158.03;;;18.00;84.51
66880;BME280;53789;51.392;10.234;2022-08-01T00:17:58;98156.41;;;17.99;84.15
66880;BME280;53789;51.392;10.234;2022-08-01T00:18:19;98153.25;;;18.00;84.33
66880;BME280;53789;51.392;10.234;2022-08-01T00:18:39;98156.03;;;18.00;84.11
66880;BME280;53789;51.392;10.234;2022-08-01T00:18:59;98154.88;;;18.01;84.26
66880;BME280;53789;51.392;10.234;2022-08-01T00:19:20;98154.06;;;18.01;84.35
66880;BME280;53789;51.392;10.234;2022-08-01T00:19:40;98156.03;;;18.00;84.58
66880;BME280;53789;51.392;10.234;2022-08-01T00:20:01;98163.59;;;18.00;84.27
66880;BME280;53789;51.392;10.234;2022-08-01T00:20:22;98156.03;;;18.00;84.20
66880;BME280;53789;51.392;10.234;2022-08-01T00:20:42;98151.28;;;18.01;84.70
66880;BME280;53789;51.392;10.234;2022-08-01T00:21:03;98156.03;;;18.00;84.35
66880;BME280;53789;51.392;10.234;2022-08-01T00:21:24;98153.25;;;18.00;84.77
66880;BME280;53789;51.392;10.234;2022-08-01T00:21:44;98144.47;;;17.98;84.66
66880;BME280;53789;51.392;10.234;2022-08-01T00:22:05;98152.00;;;17.98;84.43
66880;BME280;53789;51.392;10.234;2022-08-01T00:22:25;98152.00;;;17.98;84.39
66880;BME280;53789;51.392;10.234;2022-08-01T00:22:46;98155.59;;;17.98;84.78
66880;BME280;53789;51.392;10.234;2022-08-01T00:23:06;98156.41;;;17.99;84.35
66880;BME280;53789;51.392;10.234;2022-08-01T00:23:26;98151.19;;;17.97;84.67
66880;BME280;53789;51.392;10.234;2022-08-01T00:23:47;98163.94;;;17.98;85.23
66880;BME280;53789;51.392;10.234;2022-08-01T00:24:07;98153.97;;;17.97;84.44
66880;BME280;53789;51.392;10.234;2022-08-01T00:24:28;98149.56;;;17.96;84.51
66880;BME280;53789;51.392;10.234;2022-08-01T00:24:48;98153.53;;;17.95;85.21
66880;BME280;53789;51.392;10.234;2022-08-01T00:25:09;98155.50;;;17.94;84.71
66880;BME280;53789;51.392;10.234;2022-08-01T00:25:29;98151.91;;;17.94;84.65
66880;BME280;53789;51.392;10.234;2022-08-01T00:25:49;98144.38;;;17.94;84.83
66880;BME280;53789;51.392;10.234;2022-08-01T00:26:10;98149.13;;;17.94;85.17
66880;BME280;53789;51.392;10.234;2022-08-01T00:26:30;98146.34;;;17.94;84.48
66880;BME280;53789;51.392;10.234;2022-08-01T00:26:50;98143.56;;;17.94;85.28
66880;BME280;53789;51.392;10.234;2022-08-01T00:27:11;98152.72;;;17.94;85.12
66880;BME280;53789;51.392;10.234;2022-08-01T00:27:32;98150.75;;;17.95;85.23
66880;BME280;53789;51.392;10.234;2022-08-01T00:27:52;98145.56;;;17.93;84.95
66880;BME280;53789;51.392;10.234;2022-08-01T00:28:12;98154.34;;;17.95;84.56
66880;BME280;53789;51.392;10.234;2022-08-01T00:28:33;98151.91;;;17.94;84.83
66880;BME280;53789;51.392;10.234;2022-08-01T00:28:54;98161.88;;;17.95;85.38
66880;BME280;53789;51.392;10.234;2022-08-01T00:29:14;98150.28;;;17.93;85.03
66880;BME280;53789;51.392;10.234;2022-08-01T00:29:34;98148.34;;;17.93;84.87
66880;BME280;53789;51.392;10.234;2022-08-01T00:29:55;98144.38;;;17.94;84.70
66880;BME280;53789;51.392;10.234;2022-08-01T00:30:15;98149.56;;;17.96;84.80
66880;BME280;53789;51.392;10.234;2022-08-01T00:30:36;98146.00;;;17.95;85.28
66880;BME280;53789;51.392;10.234;2022-08-01T00:30:56;98147.97;;;17.95;84.89
66880;BME280;53789;51.392;10.234;2022-08-01T00:31:16;98151.56;;;17.95;84.32
66880;BME280;53789;51.392;10.234;2022-08-01T00:31:37;98155.97;;;17.97;84.70
66880;BME280;53789;51.392;10.234;2022-08-01T00:31:57;98147.63;;;17.97;84.67
66880;BME280;53789;51.392;10.234;2022-08-01T00:32:18;98150.41;;;17.97;85.31
66880;BME280;53789;51.392;10.234;2022-08-01T00:32:38;98151.19;;;17.97;85.17
66880;BME280;53789;51.392;10.234;2022-08-01T00:32:59;98154.41;;;17.99;85.22
66880;BME280;53789;51.392;10.234;2022-08-01T00:33:19;98147.25;;;17.98;84.52
66880;BME280;53789;51.392;10.234;2022-08-01T00:33:39;98146.00;;;17.95;84.54
66880;BME280;53789;51.392;10.234;2022-08-01T00:33:59;98148.41;;;17.97;84.84
66880;BME280;53789;51.392;10.234;2022-08-01T00:34:20;98148.41;;;17.97;84.48
66880;BME280;53789;51.392;10.234;2022-08-01T00:34:40;98142.84;;;17.97;84.97
66880;BME280;53789;51.392;10.234;2022-08-01T00:35:00;98150.41;;;17.97;84.49
66880;BME280;53789;51.392;10.234;2022-08-01T00:35:21;98149.22;;;17.98;84.59
66880;BME280;53789;51.392;10.234;2022-08-01T00:35:41;98146.44;;;17.98;84.65
66880;BME280;53789;51.392;10.234;2022-08-01T00:36:01;98145.63;;;17.97;84.02
66880;BME280;53789;51.392;10.234;2022-08-01T00:36:22;98149.22;;;17.98;84.60
66880;BME280;53789;51.392;10.234;2022-08-01T00:36:43;98149.22;;;17.98;84.43
66880;BME280;53789;51.392;10.234;2022-08-01T00:37:03;98142.84;;;17.97;84.84
66880;BME280;53789;51.392;10.234;2022-08-01T00:37:23;98146.44;;;17.98;85.11
66880;BME280;53789;51.392;10.234;2022-08-01T00:37:43;98136.13;;;17.98;85.14
66880;BME280;53789;51.392;10.234;2022-08-01T00:38:04;98144.84;;;17.97;85.03
66880;BME280;53789;51.392;10.234;2022-08-01T00:38:24;98142.84;;;17.97;85.16
66880;BME280;53789;51.392;10.234;2022-08-01T00:38:44;98146.44;;;17.98;85.05
66880;BME280;53789;51.392;10.234;2022-08-01T00:39:05;98144.84;;;17.97;85.00
66880;BME280;53789;51.392;10.234;2022-08-01T00:39:25;98146.00;;;17.95;84.64
66880;BME280;53789;51.392;10.234;2022-08-01T00:39:45;98146.34;;;17.94;84.78
66880;BME280;53789;51.392;10.234;2022-08-01T00:40:07;98141.59;;;17.94;85.26
66880;BME280;53789;51.392;10.234;2022-08-01T00:40:27;98150.75;;;17.95;84.88
66880;BME280;53789;51.392;10.234;2022-08-01T00:40:48;98147.97;;;17.95;85.23
66880;BME280;53789;51.392;10.234;2022-08-01T00:41:08;98147.88;;;17.91;85.42
66880;BME280;53789;51.392;10.234;2022-08-01T00:41:28;98142.28;;;17.91;85.23
66880;BME280;53789;51.392;10.234;2022-08-01T00:41:49;98144.28;;;17.91;85.02
66880;BME280;53789;51.392;10.234;2022-08-01T00:42:10;98149.84;;;17.91;85.44
66880;BME280;53789;51.392;10.234;2022-08-01T00:42:31;98138.25;;;17.89;84.82
66880;BME280;53789;51.392;10.234;2022-08-01T00:42:52;98139.88;;;17.90;85.03
66880;BME280;53789;51.392;10.234;2022-08-01T00:43:12;98138.25;;;17.89;85.66
66880;BME280;53789;51.392;10.234;2022-08-01T00:43:33;98140.22;;;17.88;84.63
66880;BME280;53789;51.392;10.234;2022-08-01T00:43:53;98147.78;;;17.88;85.31
66880;BME280;53789;51.392;10.234;2022-08-01T00:44:13;98135.03;;;17.87;85.13
66880;BME280;53789;51.392;10.234;2022-08-01T00:44:34;98142.56;;;17.86;85.34
66880;BME280;53789;51.392;10.234;2022-08-01T00:44:54;98134.22;;;17.86;85.04
66880;BME280;53789;51.392;10.234;2022-08-01T00:45:15;98136.19;;;17.86;85.57
66880;BME280;53789;51.392;10.234;2022-08-01T00:45:35;98138.97;;;17.86;85.58
66880;BME280;53789;51.392;10.234;2022-08-01T00:45:55;98132.56;;;17.85;85.33
66880;BME280;53789;51.392;10.234;2022-08-01T00:46:16;98143.72;;;17.85;85.95
66880;BME280;53789;51.392;10.234;2022-08-01T00:46:36;98137.34;;;17.85;85.57
66880;BME280;53789;51.392;10.234;2022-08-01T00:46:56;98143.25;;;17.83;86.06
66880;BME280;53789;51.392;10.234;2022-08-01T00:47:17;98135.72;;;17.84;85.96
66880;BME280;53789;51.392;10.234;2022-08-01T00:47:37;98135.28;;;17.82;85.73
66880;BME280;53789;51.392;10.234;2022-08-01T00:47:57;98140.38;;;17.79;85.82
66880;BME280;53789;51.392;10.234;2022-08-01T00:48:18;98136.31;;;17.77;85.98
66880;BME280;53789;51.392;10.234;2022-08-01T00:48:38;98134.38;;;17.77;85.46
66880;BME280;53789;51.392;10.234;2022-08-01T00:49:00;98139.94;;;17.77;85.90
66880;BME280;53789;51.392;10.234;2022-08-01T00:49:20;98141.09;;;17.76;85.69
66880;BME280;53789;51.392;10.234;2022-08-01T00:49:41;98134.25;;;17.74;85.30
66880;BME280;53789;51.392;10.234;2022-08-01T00:50:03;98135.09;;;17.74;85.64
66880;BME280;53789;51.392;10.234;2022-08-01T00:50:24;98132.31;;;17.74;86.04
66880;BME280;53789;51.392;10.234;2022-08-01T00:50:45;98138.22;;;17.73;86.20
66880;BME280;53789;51.392;10.234;2022-08-01T00:51:07;98137.41;;;17.72;86.31
66880;BME280;53789;51.392;10.234;2022-08-01T00:51:27;98131.03;;;17.72;85.93
66880;BME280;53789;51.392;10.234;2022-08-01T00:51:48;98128.25;;;17.72;85.65
66880;BME280;53789;51.392;10.234;2022-08-01T00:52:09;98129.41;;;17.71;85.89
66880;BME280;53789;51.392;10.234;2022-08-01T00:52:31;98128.97;;;17.69;85.98
66880;BME280;53789;51.392;10.234;2022-08-01T00:52:51;98129.78;;;17.69;86.23
66880;BME280;53789;51.392;10.234;2022-08-01T00:53:12;98127.00;;;17.69;85.97
66880;BME280;53789;51.392;10.234;2022-08-01T00:53:32;98131.75;;;17.69;86.08
66880;BME280;53789;51.392;10.234;2022-08-01T00:53:54;98137.69;;;17.67;85.88
66880;BME280;53789;51.392;10.234;2022-08-01T00:54:15;98128.50;;;17.67;86.40
66880;BME280;53789;51.392;10.234;2022-08-01T00:54:36;98126.56;;;17.67;86.68
66880;BME280;53789;51.392;10.234;2022-08-01T00:54:56;98131.28;;;17.67;86.18
66880;BME280;53789;51.392;10.234;2022-08-01T00:55:18;98128.84;;;17.65;86.20
66880;BME280;53789;51.392;10.234;2022-08-01T00:55:39;98128.06;;;17.65;86.37
66880;BME280;53789;51.392;10.234;2022-08-01T00:55:59;98123.28;;;17.65;86.22
66880;BME280;53789;51.392;10.234;2022-08-01T00:56:24;98124.13;;;17.66;86.47
66880;BME280;53789;51.392;10.234;2022-08-01T00:56:45;98126.91;;;17.66;86.38
66880;BME280;53789;51.392;10.234;2022-08-01T00:57:06;98128.84;;;17.65;86.23
66880;BME280;53789;51.392;10.234;2022-08-01T00:57:27;98132.47;;;17.66;86.79
66880;BME280;53789;51.392;10.234;2022-08-01T00:57:49;98128.84;;;17.65;86.76
66880;BME280;53789;51.392;10.234;2022-08-01T00:58:10;98128.84;;;17.65;86.60
66880;BME280;53789;51.392;10.234;2022-08-01T00:58:31;98126.91;;;17.66;86.51
66880;BME280;53789;51.392;10.234;2022-08-01T00:58:53;98125.28;;;17.65;86.08
66880;BME280;53789;51.392;10.234;2022-08-01T00:59:14;98133.63;;;17.65;86.83
66880;BME280;53789;51.392;10.234;2022-08-01T00:59:38;98126.44;;;17.64;86.90
66880;BME280;53789;51.392;10.234;2022-08-01T00:59:59;98128.41;;;17.63;86.46
66880;BME280;53789;51.392;10.234;2022-08-01T01:00:21;98134.41;;;17.65;86.89
66880;BME280;53789;51.392;10.234;2022-08-01T01:00:41;98130.03;;;17.64;86.28
66880;BME280;53789;51.392;10.234;2022-08-01T01:01:02;98131.19;;;17.63;86.11
66880;BME280;53789;51.392;10.234;2022-08-01T01:01:23;98120.44;;;17.61;87.04
66880;BME280;53789;51.392;10.234;2022-08-01T01:01:44;98127.97;;;17.61;86.88
66880;BME280;53789;51.392;10.234;2022-08-01T01:02:04;98120.78;;;17.60;87.09
66880;BME280;53789;51.392;10.234;2022-08-01T01:02:24;98131.56;;;17.61;87.11
66880;BME280;53789;51.392;10.234;2022-08-01T01:02:45;98126.34;;;17.60;87.08
66880;BME280;53789;51.392;10.234;2022-08-01T01:03:05;98127.50;;;17.59;87.07
66880;BME280;53789;51.392;10.234;2022-08-01T01:03:26;98126.00;;;17.61;87.11
66880;BME280;53789;51.392;10.234;2022-08-01T01:03:51;98125.19;;;17.61;86.55
66880;BME280;53789;51.392;10.234;2022-08-01T01:04:11;98127.97;;;17.61;87.38
66880;BME280;53789;51.392;10.234;2022-08-01T01:04:32;98127.97;;;17.61;87.24
66880;BME280;53789;51.392;10.234;2022-08-01T01:04:52;98123.94;;;17.58;87.00
66880;BME280;53789;51.392;10.234;2022-08-01T01:05:12;98129.13;;;17.60;86.41
66880;BME280;53789;51.392;10.234;2022-08-01T01:05:39;98128.69;;;17.58;87.03
66880;BME280;53789;51.392;10.234;2022-08-01T01:07:03;98131.56;;;17.61;87.34
66880;BME280;53789;51.392;10.234;2022-08-01T01:08:22;98128.78;;;17.61;86.44
66880;BME280;53789;51.392;10.234;2022-08-01T01:10:00;98126.00;;;17.61;87.29
66880;BME280;53789;51.392;10.234;2022-08-01T01:10:48;98126.78;;;17.62;86.82
66880;BME280;53789;51.392;10.234;2022-08-01T01:11:26;98129.22;;;17.64;87.02
66880;BME280;53789;51.392;10.234;2022-08-01T01:12:00;98127.25;;;17.64;87.16
66880;BME280;53789;51.392;10.234;2022-08-01T01:14:13;98117.28;;;17.63;86.75
66880;BME280;53789;51.392;10.234;2022-08-01T01:15:46;98126.91;;;17.66;86.46
66880;BME280;53789;51.392;10.234;2022-08-01T01:16:13;98119.38;;;17.66;86.16
66880;BME280;53789;51.392;10.234;2022-08-01T01:16:39;98118.22;;;17.67;86.20
66880;BME280;53789;51.392;10.234;2022-08-01T01:17:06;98121.00;;;17.67;86.63
66880;BME280;53789;51.392;10.234;2022-08-01T01:17:33;98119.81;;;17.68;86.20
66880;BME280;53789;51.392;10.234;2022-08-01T01:18:11;98117.84;;;17.69;86.30
66880;BME280;53789;51.392;10.234;2022-08-01T01:19:01;98117.94;;;17.72;86.22
66880;BME280;53789;51.392;10.234;2022-08-01T01:19:29;98108.44;;;17.73;86.57
66880;BME280;53789;51.392;10.234;2022-08-01T01:19:54;98114.78;;;17.74;86.33
66880;BME280;53789;51.392;10.234;2022-08-01T01:20:17;98107.63;;;17.73;86.18
66880;BME280;53789;51.392;10.234;2022-08-01T01:20:44;98112.84;;;17.74;86.57
66880;BME280;53789;51.392;10.234;2022-08-01T01:22:02;98115.25;;;17.76;85.75
66880;BME280;53789;51.392;10.234;2022-08-01T01:25:09;98121.44;;;17.69;86.15
66880;BME280;53789;51.392;10.234;2022-08-01T01:25:39;98117.03;;;17.68;86.69
66880;BME280;53789;51.392;10.234;2022-08-01T01:27:06;98119.38;;;17.66;86.07
66880;BME280;53789;51.392;10.234;2022-08-01T01:28:17;98116.94;;;17.65;86.28
66880;BME280;53789;51.392;10.234;2022-08-01T01:29:25;98114.97;;;17.65;86.92
66880;BME280;53789;51.392;10.234;2022-08-01T01:29:54;98116.94;;;17.65;86.42
66880;BME280;53789;51.392;10.234;2022-08-01T01:30:16;98120.50;;;17.65;86.95
66880;BME280;53789;51.392;10.234;2022-08-01T01:30:41;98119.72;;;17.65;87.07
66880;BME280;53789;51.392;10.234;2022-08-01T01:31:06;98117.66;;;17.61;87.04
66880;BME280;53789;51.392;10.234;2022-08-01T01:31:43;98123.22;;;17.61;87.12
66880;BME280;53789;51.392;10.234;2022-08-01T01:32:14;98119.16;;;17.59;86.90
66880;BME280;53789;51.392;10.234;2022-08-01T01:32:44;98125.56;;;17.59;86.59
66880;BME280;53789;51.392;10.234;2022-08-01T01:33:07;98126.34;;;17.60;87.48
66880;BME280;53789;51.392;10.234;2022-08-01T01:33:30;98123.13;;;17.58;86.68
66880;BME280;53789;51.392;10.234;2022-08-01T01:33:53;98124.72;;;17.59;87.57
66880;BME280;53789;51.392;10.234;2022-08-01T01:34:18;98129.50;;;17.58;87.28
66880;BME280;53789;51.392;10.234;2022-08-01T01:34:43;98121.94;;;17.59;87.77
66880;BME280;53789;51.392;10.234;2022-08-01T01:35:15;98129.13;;;17.60;87.30
66880;BME280;53789;51.392;10.234;2022-08-01T01:35:42;98129.13;;;17.60;87.82
66880;BME280;53789;51.392;10.234;2022-08-01T01:36:09;98125.56;;;17.59;87.61
66880;BME280;53789;51.392;10.234;2022-08-01T01:36:33;98126.34;;;17.60;87.25
66880;BME280;53789;51.392;10.234;2022-08-01T01:36:58;98121.94;;;17.59;87.68
66880;BME280;53789;51.392;10.234;2022-08-01T01:37:23;98121.94;;;17.59;88.00
66880;BME280;53789;51.392;10.234;2022-08-01T01:37:49;98125.91;;;17.58;87.62
66880;BME280;53789;51.392;10.234;2022-08-01T01:38:20;98118.38;;;17.58;88.36
66880;BME280;53789;51.392;10.234;2022-08-01T01:38:44;98124.72;;;17.59;87.90
66880;BME280;53789;51.392;10.234;2022-08-01T01:39:06;98117.56;;;17.58;88.38
66880;BME280;53789;51.392;10.234;2022-08-01T01:39:30;98125.56;;;17.59;88.26
66880;BME280;53789;51.392;10.234;2022-08-01T01:39:52;98127.50;;;17.59;88.56
66880;BME280;53789;51.392;10.234;2022-08-01T01:40:13;98120.34;;;17.58;88.45
66880;BME280;53789;51.392;10.234;2022-08-01T01:40:36;98122.31;;;17.57;88.26
66880;BME280;53789;51.392;10.234;2022-08-01T01:41:00;98121.50;;;17.57;88.14
66880;BME280;53789;51.392;10.234;2022-08-01T01:41:23;98122.31;;;17.57;88.80
66880;BME280;53789;51.392;10.234;2022-08-01T01:41:47;98120.69;;;17.56;88.38
66880;BME280;53789;51.392;10.234;2022-08-01T01:42:09;98121.50;;;17.57;88.16
66880;BME280;53789;51.392;10.234;2022-08-01T01:42:31;98122.31;;;17.57;88.36
66880;BME280;53789;51.392;10.234;2022-08-01T01:42:55;98122.66;;;17.56;88.43
66880;BME280;53789;51.392;10.234;2022-08-01T01:43:18;98121.88;;;17.55;88.82
66880;BME280;53789;51.392;10.234;2022-08-01T01:43:40;98124.66;;;17.55;88.52
66880;BME280;53789;51.392;10.234;2022-08-01T01:44:04;98116.66;;;17.54;88.14
66880;BME280;53789;51.392;10.234;2022-08-01T01:44:27;98123.38;;;17.53;88.60
66880;BME280;53789;51.392;10.234;2022-08-01T01:44:50;98120.59;;;17.53;89.03
66880;BME280;53789;51.392;10.234;2022-08-01T01:45:11;98120.59;;;17.53;88.57
66880;BME280;53789;51.392;10.234;2022-08-01T01:45:33;98118.97;;;17.52;88.36
66880;BME280;53789;51.392;10.234;2022-08-01T01:45:54;98121.41;;;17.53;88.15
66880;BME280;53789;51.392;10.234;2022-08-01T01:46:18;98127.78;;;17.54;88.41
66880;BME280;53789;51.392;10.234;2022-08-01T01:46:40;98125.81;;;17.54;89.11
66880;BME280;53789;51.392;10.234;2022-08-01T01:47:02;98121.41;;;17.53;88.74
66880;BME280;53789;51.392;10.234;2022-08-01T01:47:24;98121.88;;;17.55;88.65
66880;BME280;53789;51.392;10.234;2022-08-01T01:47:46;98118.25;;;17.55;88.76
66880;BME280;53789;51.392;10.234;2022-08-01T01:48:09;98119.88;;;17.56;88.60
66880;BME280;53789;51.392;10.234;2022-08-01T01:48:32;98125.00;;;17.54;88.14
66880;BME280;53789;51.392;10.234;2022-08-01T01:48:55;98121.41;;;17.53;88.92
66880;BME280;53789;51.392;10.234;2022-08-01T01:49:21;98121.41;;;17.53;89.10
66880;BME280;53789;51.392;10.234;2022-08-01T01:49:46;98127.78;;;17.54;88.41
66880;BME280;53789;51.392;10.234;2022-08-01T01:50:08;98125.81;;;17.54;89.31
66880;BME280;53789;51.392;10.234;2022-08-01T01:50:32;98126.16;;;17.53;89.44
66880;BME280;53789;51.392;10.234;2022-08-01T01:50:53;98121.41;;;17.53;89.53
66880;BME280;53789;51.392;10.234;2022-08-01T01:51:15;98127.31;;;17.52;88.83
66880;BME280;53789;51.392;10.234;2022-08-01T01:51:38;98112.63;;;17.51;89.28
66880;BME280;53789;51.392;10.234;2022-08-01T01:52:00;98121.75;;;17.52;89.26
66880;BME280;53789;51.392;10.234;2022-08-01T01:52:23;98130.09;;;17.52;89.44
66880;BME280;53789;51.392;10.234;2022-08-01T01:52:46;98124.53;;;17.52;89.66
66880;BME280;53789;51.392;10.234;2022-08-01T01:53:10;98128.50;;;17.51;89.06
66880;BME280;53789;51.392;10.234;2022-08-01T01:53:35;98128.50;;;17.51;89.58
66880;BME280;53789;51.392;10.234;2022-08-01T01:53:57;98126.06;;;17.49;89.64
66880;BME280;53789;51.392;10.234;2022-08-01T01:54:20;98125.25;;;17.49;89.77
66880;BME280;53789;51.392;10.234;2022-08-01T01:54:46;98122.81;;;17.47;89.51
66880;BME280;53789;51.392;10.234;2022-08-01T01:55:10;98117.25;;;17.47;89.96
66880;BME280;53789;51.392;10.234;2022-08-01T01:55:31;98124.00;;;17.46;89.73
66880;BME280;53789;51.392;10.234;2022-08-01T01:55:53;98122.03;;;17.47;89.50
66880;BME280;53789;51.392;10.234;2022-08-01T01:56:17;98120.03;;;17.47;89.93
66880;BME280;53789;51.392;10.234;2022-08-01T01:56:41;98114.41;;;17.43;90.00
66880;BME280;53789;51.392;10.234;2022-08-01T01:57:05;98117.19;;;17.43;89.57
66880;BME280;53789;51.392;10.234;2022-08-01T01:57:30;98119.97;;;17.43;89.48
66880;BME280;53789;51.392;10.234;2022-08-01T01:57:55;98119.13;;;17.43;89.70
66880;BME280;53789;51.392;10.234;2022-08-01T01:58:18;98117.97;;;17.44;89.65
66880;BME280;53789;51.392;10.234;2022-08-01T01:58:42;98119.59;;;17.45;89.55
66880;BME280;53789;51.392;10.234;2022-08-01T01:59:04;98121.59;;;17.45;90.11
66880;BME280;53789;51.392;10.234;2022-08-01T01:59:29;98126.78;;;17.46;89.99
66880;BME280;53789;51.392;10.234;2022-08-01T01:59:53;98124.81;;;17.47;90.60
66880;BME280;53789;51.392;10.234;2022-08-01T02:00:15;98128.38;;;17.47;89.96
66880;BME280;53789;51.392;10.234;2022-08-01T02:00:37;98129.22;;;17.48;89.59
66880;BME280;53789;51.392;10.234;2022-08-01T02:01:01;98128.38;;;17.47;90.04
66880;BME280;53789;51.392;10.234;2022-08-01T02:01:27;98123.19;;;17.46;89.35
66880;BME280;53789;51.392;10.234;2022-08-01T02:01:51;98126.78;;;17.46;89.88
66880;BME280;53789;51.392;10.234;2022-08-01T02:02:13;98133.16;;;17.47;89.77
66880;BME280;53789;51.392;10.234;2022-08-01T02:02:37;98123.66;;;17.48;90.22
66880;BME280;53789;51.392;10.234;2022-08-01T02:03:01;98130.38;;;17.47;89.88
66880;BME280;53789;51.392;10.234;2022-08-01T02:03:24;98121.22;;;17.46;90.19
66880;BME280;53789;51.392;10.234;2022-08-01T02:03:46;98123.19;;;17.46;90.24
66880;BME280;53789;51.392;10.234;2022-08-01T02:04:08;98125.97;;;17.46;90.43
66880;BME280;53789;51.392;10.234;2022-08-01T02:04:30;98122.03;;;17.47;90.26
66880;BME280;53789;51.392;10.234;2022-08-01T02:04:53;98120.03;;;17.47;89.50
66880;BME280;53789;51.392;10.234;2022-08-01T02:05:15;98123.66;;;17.48;89.38
66880;BME280;53789;51.392;10.234;2022-08-01T02:05:37;98125.25;;;17.49;89.83
66880;BME280;53789;51.392;10.234;2022-08-01T02:06:00;98123.66;;;17.48;90.18
66880;BME280;53789;51.392;10.234;2022-08-01T02:06:23;98125.59;;;17.47;90.18
66880;BME280;53789;51.392;10.234;2022-08-01T02:06:46;98122.47;;;17.49;90.25
66880;BME280;53789;51.392;10.234;2022-08-01T02:07:09;98130.00;;;17.48;89.76
66880;BME280;53789;51.392;10.234;2022-08-01T02:07:32;98122.09;;;17.50;89.77
66880;BME280;53789;51.392;10.234;2022-08-01T02:07:55;98124.09;;;17.50;89.77
66880;BME280;53789;51.392;10.234;2022-08-01T02:08:17;98125.72;;;17.51;89.58
66880;BME280;53789;51.392;10.234;2022-08-01T02:08:41;98124.88;;;17.50;89.65